Time;durP1;ratioP1;P1;durP2;ratioP2;P2;SDS_P1;SDS_P2;PMS_P1;PMS_P2;Temp;Humidity;BMP_temperature;BMP_pressure;BME280_temperature;BME280_humidity;BME280_pressure;Samples;Min_cycle;Max_cycle;Signal;HPM_P1;HPM_P2
2021/03/29 00:01:30;;;;;;;7.22;2.08;;;;;;;9.35;63.56;102616.38;5050377;28;20064;-82
2021/03/29 00:03:56;;;;;;;4.75;1.80;;;;;;;9.43;63.84;102615.38;5052989;28;20064;-82
2021/03/29 00:06:25;;;;;;;6.05;2.20;;;;;;;9.45;63.28;102615.19;5047814;28;20021;-81
2021/03/29 00:08:53;;;;;;;5.95;2.08;;;;;;;9.45;63.47;102621.34;5046259;28;20749;-81
2021/03/29 00:11:19;;;;;;;5.07;1.98;;;;;;;9.44;63.51;102624.22;5048563;28;20474;-82
2021/03/29 00:13:47;;;;;;;6.13;2.13;;;;;;;9.41;63.48;102617.44;5046787;28;20028;-82
2021/03/29 00:16:14;;;;;;;7.80;2.10;;;;;;;9.45;63.21;102620.53;5041338;28;20035;-82
2021/03/29 00:18:40;;;;;;;5.57;1.92;;;;;;;9.59;62.88;102604.38;5043784;28;20571;-82
2021/03/29 00:21:08;;;;;;;4.75;2.00;;;;;;;9.57;62.38;102609.09;5048049;28;20124;-81
2021/03/29 00:23:35;;;;;;;7.07;2.45;;;;;;;9.58;62.80;102607.25;5041980;28;20025;-82
2021/03/29 00:26:03;;;;;;;10.23;2.40;;;;;;;9.51;62.41;102617.06;5041954;28;20041;-82
2021/03/29 00:28:29;;;;;;;6.38;2.30;;;;;;;9.59;62.65;102616.94;5044743;28;20025;-81
2021/03/29 00:30:54;;;;;;;7.55;2.67;;;;;;;9.73;61.59;102612.50;5044720;28;20025;-81
2021/03/29 00:33:23;;;;;;;11.38;2.83;;;;;;;9.67;61.93;102611.41;5047703;28;20057;-81
2021/03/29 00:35:49;;;;;;;11.52;2.22;;;;;;;9.72;61.91;102605.50;5043710;28;20494;-82
2021/03/29 00:38:16;;;;;;;7.70;2.47;;;;;;;9.69;62.19;102604.88;5043780;28;20622;-82
2021/03/29 00:40:46;;;;;;;10.73;2.60;;;;;;;9.66;62.09;102615.94;5047553;28;20064;-82
2021/03/29 00:43:22;;;;;;;12.05;2.80;;;;;;;9.64;62.16;102609.13;5038281;28;20025;-82
2021/03/29 00:45:51;;;;;;;7.22;2.63;;;;;;;9.69;62.01;102604.00;5047422;28;20064;-82
2021/03/29 00:48:21;;;;;;;7.53;2.45;;;;;;;9.69;61.82;102602.19;5046743;28;20063;-82
2021/03/29 00:50:51;;;;;;;8.10;2.28;;;;;;;9.67;62.32;102609.56;5047481;28;20033;-82
2021/03/29 00:53:17;;;;;;;7.63;2.38;;;;;;;9.77;61.91;102603.88;5049487;28;20102;-81
2021/03/29 00:55:46;;;;;;;4.97;2.00;;;;;;;9.70;62.26;102611.03;5044386;28;20029;-82
2021/03/29 00:58:16;;;;;;;5.80;1.67;;;;;;;9.53;62.97;102615.03;5045123;28;20035;-81
2021/03/29 01:00:49;;;;;;;4.20;2.28;;;;;;;9.59;62.77;102600.88;5044856;28;20036;-83
2021/03/29 01:03:18;;;;;;;7.88;2.35;;;;;;;9.66;62.21;102604.41;5046507;28;20033;-82
2021/03/29 01:05:45;;;;;;;6.18;2.20;;;;;;;9.59;62.24;102601.69;5043683;28;20021;-82
2021/03/29 01:08:13;;;;;;;10.02;2.53;;;;;;;9.77;61.89;102603.03;5039389;28;20036;-81
2021/03/29 01:10:39;;;;;;;7.22;2.17;;;;;;;9.60;62.63;102598.00;5047707;28;20049;-82
2021/03/29 01:13:09;;;;;;;8.98;2.53;;;;;;;9.50;63.21;102597.50;5044665;28;20084;-82
2021/03/29 01:15:38;;;;;;;7.25;2.10;;;;;;;9.51;63.55;102592.97;5043610;28;20368;-82
2021/03/29 01:18:07;;;;;;;6.20;2.15;;;;;;;9.26;64.61;102596.13;5042039;28;20028;-82
2021/03/29 01:20:48;;;;;;;7.60;2.40;;;;;;;9.33;64.26;102604.19;5043873;28;20117;-82
2021/03/29 01:23:16;;;;;;;6.63;2.45;;;;;;;9.34;64.18;102592.47;5044952;28;20585;-82
2021/03/29 01:25:42;;;;;;;4.57;2.20;;;;;;;9.23;64.83;102595.69;5037689;28;20127;-82
2021/03/29 01:28:11;;;;;;;8.25;2.00;;;;;;;9.25;64.79;102598.97;5043208;28;20431;-82
2021/03/29 01:30:38;;;;;;;7.55;2.25;;;;;;;9.17;65.54;102601.81;5041873;28;20056;-84
2021/03/29 01:33:07;;;;;;;4.90;2.28;;;;;;;9.21;65.51;102603.06;5044679;28;20059;-82
2021/03/29 01:35:42;;;;;;;5.97;1.98;;;;;;;9.25;65.16;102597.13;5046193;28;20037;-82
2021/03/29 01:38:09;;;;;;;8.35;2.47;;;;;;;9.32;64.80;102600.69;5045433;28;20024;-82
2021/03/29 01:40:37;;;;;;;7.90;2.60;;;;;;;9.29;65.29;102600.25;5046165;28;20474;-82
2021/03/29 01:43:06;;;;;;;8.50;2.15;;;;;;;9.27;64.96;102602.28;5049015;28;20040;-82
2021/03/29 01:45:33;;;;;;;7.15;2.70;;;;;;;9.32;64.51;102595.31;5041070;28;20056;-82
2021/03/29 01:48:04;;;;;;;4.60;1.90;;;;;;;9.33;64.64;102604.19;5043944;28;20068;-82
2021/03/29 01:50:33;;;;;;;9.85;2.08;;;;;;;9.36;64.60;102606.50;5041724;28;20084;-82
2021/03/29 01:53:00;;;;;;;4.35;2.42;;;;;;;9.32;64.45;102600.69;5043825;28;20059;-82
2021/03/29 01:55:28;;;;;;;7.25;2.40;;;;;;;9.33;64.03;102606.84;5056844;28;20111;-82
2021/03/29 01:57:54;;;;;;;5.45;2.15;;;;;;;9.45;63.71;102605.31;5049397;28;20399;-82
2021/03/29 02:00:25;;;;;;;5.80;2.15;;;;;;;9.51;63.54;102599.16;5047964;28;20029;-81
2021/03/29 02:02:51;;;;;;;7.72;2.15;;;;;;;9.56;63.24;102612.81;5040006;28;20431;-79
2021/03/29 02:05:18;;;;;;;5.53;2.10;;;;;;;9.51;63.20;102604.50;5043258;28;20032;-79
2021/03/29 02:07:45;;;;;;;5.18;2.38;;;;;;;9.50;63.47;102602.84;5040643;28;20033;-78
2021/03/29 02:10:21;;;;;;;8.02;2.22;;;;;;;9.59;62.83;102612.41;5042514;28;20056;-78
2021/03/29 02:12:47;;;;;;;6.60;2.25;;;;;;;9.62;62.57;102606.66;5041063;28;20017;-79
2021/03/29 02:15:17;;;;;;;8.90;2.08;;;;;;;9.56;63.01;102609.31;5043385;28;20119;-79
2021/03/29 02:17:43;;;;;;;6.32;2.10;;;;;;;9.50;63.23;102618.09;5043580;28;20126;-79
2021/03/29 02:20:15;;;;;;;7.20;2.08;;;;;;;9.56;63.14;102603.94;5037222;28;20041;-79
2021/03/29 02:22:53;;;;;;;7.72;2.40;;;;;;;9.55;62.80;102608.47;5043694;28;20084;-78
2021/03/29 02:25:20;;;;;;;10.95;2.30;;;;;;;9.55;62.97;102611.16;5040608;28;20542;-79
2021/03/29 02:27:49;;;;;;;8.85;2.67;;;;;;;9.54;63.20;102608.66;5046067;28;20032;-78
2021/03/29 02:30:21;;;;;;;9.63;2.58;;;;;;;9.50;63.23;102618.09;5042085;28;20796;-79
2021/03/29 02:32:48;;;;;;;4.88;2.42;;;;;;;9.59;63.08;102611.59;5040475;28;20754;-78
2021/03/29 02:35:16;;;;;;;7.38;2.00;;;;;;;9.62;62.92;102616.53;5041550;28;20598;-79
2021/03/29 02:37:50;;;;;;;8.30;2.33;;;;;;;9.54;63.37;102614.03;5038502;28;20155;-78
2021/03/29 02:40:19;;;;;;;11.98;2.60;;;;;;;9.50;63.14;102615.41;5042527;28;20029;-78
2021/03/29 02:42:46;;;;;;;8.02;3.03;;;;;;;9.58;63.10;102609.94;5041972;28;20044;-79
2021/03/29 02:45:13;;;;;;;4.20;2.15;;;;;;;9.58;62.88;102610.75;5039199;28;20040;-78
2021/03/29 02:47:43;;;;;;;5.90;1.92;;;;;;;9.55;63.04;102615.69;5038213;28;20052;-79
2021/03/29 02:50:12;;;;;;;7.18;2.35;;;;;;;9.53;63.17;102604.34;5039400;28;20032;-80
2021/03/29 02:52:41;;;;;;;7.50;2.42;;;;;;;9.65;63.03;102608.09;5051150;28;20071;-80
2021/03/29 02:55:08;;;;;;;8.63;2.22;;;;;;;9.62;63.35;102605.84;5037657;28;20044;-80
2021/03/29 02:57:40;;;;;;;5.15;2.30;;;;;;;9.62;62.74;102605.84;5036954;28;20018;-79
2021/03/29 03:00:15;;;;;;;6.95;2.50;;;;;;;9.55;62.90;102603.13;5031707;28;20037;-80
2021/03/29 03:02:43;;;;;;;3.85;1.60;;;;;;;9.55;62.98;102599.63;5036980;28;20029;-79
2021/03/29 03:05:10;;;;;;;8.10;2.30;;;;;;;9.60;62.93;102599.84;5051373;28;20116;-79
2021/03/29 03:07:37;;;;;;;5.90;2.05;;;;;;;9.52;63.41;102602.69;5040402;28;20033;-79
2021/03/29 03:10:09;;;;;;;5.25;2.20;;;;;;;9.48;63.03;102599.56;5040787;28;20035;-79
2021/03/29 03:12:37;;;;;;;6.18;2.22;;;;;;;9.32;63.89;102599.84;5040253;28;20593;-79
2021/03/29 03:15:09;;;;;;;5.32;2.13;;;;;;;9.25;64.38;102594.47;5041835;28;20043;-79
2021/03/29 03:17:35;;;;;;;6.70;2.53;;;;;;;9.29;64.26;102602.91;5037498;28;20033;-79
2021/03/29 03:20:00;;;;;;;5.93;2.30;;;;;;;9.17;64.45;102604.50;5042239;28;20616;-79
2021/03/29 03:22:26;;;;;;;6.75;2.30;;;;;;;9.18;64.54;102612.31;5041982;28;20070;-79
2021/03/29 03:24:52;;;;;;;5.95;2.38;;;;;;;9.16;64.67;102614.34;5042587;28;20035;-79
2021/03/29 03:27:18;;;;;;;7.82;2.42;;;;;;;9.14;64.84;102613.69;5040695;28;20542;-79
2021/03/29 03:29:43;;;;;;;6.75;2.33;;;;;;;9.05;65.28;102621.03;5053641;28;20025;-79
2021/03/29 03:32:16;;;;;;;4.97;2.10;;;;;;;8.91;66.58;102623.78;5043430;28;21023;-80
2021/03/29 03:34:43;;;;;;;12.13;2.65;;;;;;;8.85;67.00;102622.72;5041400;28;20119;-79
2021/03/29 03:37:15;;;;;;;7.82;2.20;;;;;;;8.83;67.50;102626.59;5038847;28;20060;-80
2021/03/29 03:39:43;;;;;;;6.30;2.40;;;;;;;8.76;67.83;102619.31;5042660;28;20939;-79
2021/03/29 03:42:12;;;;;;;10.68;2.67;;;;;;;8.79;67.79;102618.94;5039821;28;20380;-79
2021/03/29 03:44:39;;;;;;;7.45;2.40;;;;;;;8.69;68.62;102626.44;5042793;28;20029;-79
2021/03/29 03:47:05;;;;;;;8.23;2.50;;;;;;;8.72;68.62;102620.72;5039983;28;20013;-79
2021/03/29 03:49:32;;;;;;;5.47;2.65;;;;;;;8.51;69.28;102617.19;5041614;28;20398;-79
2021/03/29 03:51:58;;;;;;;4.55;2.00;;;;;;;8.48;69.60;102619.25;5036113;28;20032;-79
2021/03/29 03:54:24;;;;;;;5.97;2.13;;;;;;;8.45;70.33;102613.44;5040529;28;20013;-79
2021/03/29 03:56:50;;;;;;;7.57;2.40;;;;;;;8.43;70.42;102620.78;5041573;28;20041;-79
2021/03/29 03:59:16;;;;;;;7.43;2.10;;;;;;;8.45;70.07;102621.47;5043981;28;21820;-79
2021/03/29 04:02:05;;;;;;;7.65;2.42;;;;;;;8.56;69.45;102615.63;5044198;28;20108;-79
2021/03/29 04:04:31;;;;;;;8.15;2.70;;;;;;;8.55;69.46;102616.63;5034747;28;20491;-79
2021/03/29 04:06:57;;;;;;;5.95;2.53;;;;;;;8.49;69.94;102612.06;5039505;28;20028;-79
2021/03/29 04:09:32;;;;;;;7.78;2.50;;;;;;;8.46;69.84;102605.25;5038113;28;20036;-79
2021/03/29 04:11:58;;;;;;;;;;;;;;;8.37;70.48;102597.53;5043919;28;20016;-79
2021/03/29 04:14:23;;;;;;;5.43;2.03;;;;;;;8.37;70.62;102598.34;5042097;28;19924;-79
2021/03/29 04:16:49;;;;;;;11.48;3.13;;;;;;;8.32;71.20;102599.91;5044865;28;20021;-79
2021/03/29 04:19:14;;;;;;;7.45;2.40;;;;;;;8.52;69.87;102602.81;5042805;28;20507;-79
2021/03/29 04:21:40;;;;;;;6.47;2.65;;;;;;;8.51;69.47;102599.31;5041915;28;20030;-79
2021/03/29 04:24:06;;;;;;;8.25;2.83;;;;;;;8.53;70.05;102604.47;5045123;28;20510;-79
2021/03/29 04:26:32;;;;;;;9.38;2.15;;;;;;;8.51;70.30;102606.50;5044515;28;20112;-80
2021/03/29 04:28:57;;;;;;;7.43;3.22;;;;;;;8.55;69.55;102605.13;5043736;28;20143;-79
2021/03/29 04:31:23;;;;;;;9.05;2.88;;;;;;;8.56;69.39;102604.94;5041164;28;20510;-79
2021/03/29 04:33:48;;;;;;;5.15;2.35;;;;;;;8.60;68.91;102611.53;5044705;28;20100;-80
2021/03/29 04:36:14;;;;;;;5.35;2.33;;;;;;;8.62;69.27;102609.53;5047017;28;20021;-79
2021/03/29 04:38:39;;;;;;;6.13;2.45;;;;;;;8.55;69.61;102610.47;5061536;28;20571;-80
2021/03/29 04:41:05;;;;;;;5.63;2.38;;;;;;;8.60;69.43;102608.03;5045717;28;20104;-79
2021/03/29 04:43:31;;;;;;;5.72;2.55;;;;;;;8.53;69.78;102609.81;5043278;28;20025;-79
2021/03/29 04:45:57;;;;;;;8.50;2.28;;;;;;;8.52;69.98;102602.81;5045041;28;20441;-79
2021/03/29 04:48:22;;;;;;;7.60;2.70;;;;;;;8.49;69.75;102609.38;5042229;28;20018;-79
2021/03/29 04:50:48;;;;;;;5.30;2.20;;;;;;;8.50;70.09;102610.22;5044259;28;20029;-79
2021/03/29 04:53:14;;;;;;;7.78;2.00;;;;;;;8.46;70.74;102610.59;5038628;28;20079;-80
2021/03/29 04:55:39;;;;;;;4.75;1.92;;;;;;;8.51;70.06;102612.69;5036966;28;20494;-79
2021/03/29 04:58:05;;;;;;;8.70;2.30;;;;;;;8.50;70.42;102616.38;5034761;28;20028;-79
2021/03/29 05:00:31;;;;;;;5.63;2.20;;;;;;;8.54;70.21;102611.47;5046632;28;20020;-80
2021/03/29 05:02:59;;;;;;;6.20;2.15;;;;;;;8.57;70.17;102606.56;5043148;28;20036;-79
2021/03/29 05:05:25;;;;;;;10.00;2.53;;;;;;;8.64;69.54;102612.84;5044113;28;20112;-79
2021/03/29 05:07:50;;;;;;;9.95;3.00;;;;;;;8.65;69.87;102617.16;5041668;28;20129;-79
2021/03/29 05:10:16;;;;;;;7.82;2.20;;;;;;;8.72;69.43;102612.69;5045216;28;20017;-79
2021/03/29 05:12:41;;;;;;;6.40;2.08;;;;;;;8.67;70.02;102614.28;5040047;28;20021;-80
2021/03/29 05:15:08;;;;;;;8.90;2.50;;;;;;;8.68;70.29;102616.78;5038715;28;20029;-79
2021/03/29 05:17:34;;;;;;;11.35;3.03;;;;;;;8.65;70.45;102617.16;5045934;28;20692;-79
2021/03/29 05:20:01;;;;;;;3.60;2.17;;;;;;;8.68;70.78;102623.97;5048543;28;20555;-80
2021/03/29 05:22:26;;;;;;;8.75;2.95;;;;;;;8.75;70.04;102616.84;5045839;28;20028;-79
2021/03/29 05:24:52;;;;;;;8.95;3.00;;;;;;;8.79;69.71;102621.59;5045232;28;20020;-79
2021/03/29 05:27:17;;;;;;;6.90;2.83;;;;;;;8.82;69.80;102624.94;5040830;28;20055;-79
2021/03/29 05:29:43;;;;;;;7.07;2.88;;;;;;;8.84;69.78;102622.91;5041470;28;20097;-79
2021/03/29 05:32:23;;;;;;;5.38;2.40;;;;;;;8.83;70.19;102619.41;5046110;28;20169;-79
2021/03/29 05:34:52;;;;;;;9.48;3.00;;;;;;;8.79;70.66;102624.28;5040233;28;20039;-79
2021/03/29 05:37:19;;;;;;;5.22;2.42;;;;;;;8.94;69.62;102632.25;5036685;28;20029;-79
2021/03/29 05:39:46;;;;;;;7.50;2.78;;;;;;;8.97;69.98;102634.53;5041054;28;20064;-79
2021/03/29 05:42:11;;;;;;;8.57;2.88;;;;;;;8.96;69.75;102632.88;5042749;28;20032;-78
2021/03/29 05:44:37;;;;;;;6.45;2.58;;;;;;;8.98;70.39;102633.53;5039122;28;20024;-78
2021/03/29 05:47:03;;;;;;;7.38;2.55;;;;;;;8.99;70.21;102637.03;5043878;28;20856;-79
2021/03/29 05:49:34;;;;;;;8.65;3.33;;;;;;;8.98;70.27;102643.41;5045494;28;20095;-79
2021/03/29 05:52:00;;;;;;;6.68;2.47;;;;;;;8.97;70.10;102639.03;5038319;28;20175;-79
2021/03/29 05:54:27;;;;;;;6.35;2.50;;;;;;;8.85;71.29;102643.25;5041624;28;20025;-79
2021/03/29 05:56:53;;;;;;;9.13;2.40;;;;;;;8.98;70.05;102649.56;5043159;28;20391;-83
2021/03/29 05:59:21;;;;;;;8.80;2.40;;;;;;;8.83;71.36;102656.00;5042475;28;20047;-83
2021/03/29 06:01:49;;;;;;;8.00;3.10;;;;;;;8.69;72.44;102653.16;5043252;28;20064;-82
2021/03/29 06:04:36;;;;;;;6.85;2.65;;;;;;;8.70;72.42;102649.47;5045435;28;20057;-82
2021/03/29 06:07:15;;;;;;;7.38;2.20;;;;;;;8.67;72.81;102644.53;5040998;28;20028;-82
2021/03/29 06:09:41;;;;;;;10.82;2.63;;;;;;;8.77;72.70;102649.53;5043799;28;20192;-82
2021/03/29 06:12:09;;;;;;;8.13;2.75;;;;;;;8.84;72.42;102655.81;5047896;28;20029;-81
2021/03/29 06:14:35;;;;;;;5.93;2.72;;;;;;;8.95;72.09;102646.44;5039132;28;20499;-83
2021/03/29 06:17:08;;;;;;;7.93;2.97;;;;;;;9.09;71.09;102648.22;5044831;28;20029;-82
2021/03/29 06:19:43;;;;;;;6.32;2.80;;;;;;;9.19;71.09;102654.09;5049098;28;20040;-82
2021/03/29 06:22:10;;;;;;;10.80;2.90;;;;;;;9.21;70.55;102657.38;5048920;28;20098;-81
2021/03/29 06:24:56;;;;;;;7.60;2.78;;;;;;;9.31;70.10;102663.22;5044877;28;20029;-82
2021/03/29 06:27:25;;;;;;;6.88;2.95;;;;;;;9.34;70.05;102660.19;5061153;28;20028;-81
2021/03/29 06:30:10;;;;;;;14.40;2.95;;;;;;;9.33;71.57;102666.53;5046374;28;20037;-82
2021/03/29 06:32:36;;;;;;;9.80;3.00;;;;;;;9.23;72.07;102674.06;5036853;28;20024;-82
2021/03/29 06:35:21;;;;;;;8.43;3.58;;;;;;;9.17;73.19;102674.03;5042325;28;20029;-82
2021/03/29 06:37:46;;;;;;;8.70;3.28;;;;;;;9.27;71.41;102672.66;5039902;28;20060;-81
2021/03/29 06:40:13;;;;;;;5.72;3.22;;;;;;;9.15;72.98;102674.19;5041997;28;20033;-81
2021/03/29 06:42:38;;;;;;;11.95;3.20;;;;;;;9.09;72.86;102670.44;5035255;28;20158;-82
2021/03/29 06:45:16;;;;;;;8.52;2.63;;;;;;;8.91;73.79;102666.56;5045204;28;20174;-82
2021/03/29 06:47:45;;;;;;;6.97;2.72;;;;;;;8.93;73.93;102676.03;5039427;28;20033;-82
2021/03/29 06:50:31;;;;;;;6.45;2.72;;;;;;;9.15;73.80;102666.16;5043663;28;20078;-81
2021/03/29 06:52:56;;;;;;;8.50;3.35;;;;;;;9.22;73.00;102667.06;5045375;28;20032;-82
2021/03/29 06:55:25;;;;;;;9.27;3.67;;;;;;;9.38;72.57;102661.44;5042946;28;20029;-81
2021/03/29 06:58:00;;;;;;;8.88;2.88;;;;;;;9.02;73.57;102663.38;5045494;28;20158;-82
2021/03/29 07:00:29;;;;;;;7.75;3.38;;;;;;;8.95;75.43;102663.31;5047292;28;20244;-82
2021/03/29 07:02:59;;;;;;;10.20;3.65;;;;;;;8.86;75.25;102666.31;5056561;28;20036;-82
2021/03/29 07:05:28;;;;;;;5.20;2.63;;;;;;;8.82;74.92;102667.72;5045040;28;20079;-82
2021/03/29 07:07:54;;;;;;;7.22;3.10;;;;;;;8.88;75.38;102667.75;5042099;28;20090;-82
2021/03/29 07:10:21;;;;;;;8.65;2.92;;;;;;;8.91;75.08;102667.38;5043841;28;20096;-82
2021/03/29 07:12:48;;;;;;;9.45;3.22;;;;;;;8.78;76.22;102662.72;5041490;28;20043;-82
2021/03/29 07:15:14;;;;;;;7.32;3.17;;;;;;;8.86;74.99;102663.63;5046184;28;20040;-81
2021/03/29 07:17:43;;;;;;;7.95;2.72;;;;;;;8.84;75.76;102657.66;5046248;28;20040;-82
2021/03/29 07:20:11;;;;;;;12.88;3.70;;;;;;;8.85;75.74;102654.78;5043094;28;20032;-82
2021/03/29 07:22:39;;;;;;;5.57;3.10;;;;;;;8.82;75.31;102651.66;5045748;28;20051;-81
2021/03/29 07:25:08;;;;;;;8.68;3.70;;;;;;;8.76;75.75;102643.38;5044655;28;20025;-82
2021/03/29 07:27:40;;;;;;;10.68;3.80;;;;;;;8.79;76.12;102642.16;5045480;28;20120;-82
2021/03/29 07:30:08;;;;;;;20.38;3.55;;;;;;;8.78;76.78;102646.69;5045397;28;20032;-82
2021/03/29 07:32:36;;;;;;;13.15;3.72;;;;;;;8.87;75.73;102659.94;5041389;28;20112;-82
2021/03/29 07:35:06;;;;;;;8.30;3.47;;;;;;;8.96;75.13;102658.78;5042196;28;20620;-79
2021/03/29 07:37:44;;;;;;;8.82;3.45;;;;;;;9.08;74.60;102663.44;5035510;28;20386;-79
2021/03/29 07:40:17;;;;;;;12.18;3.30;;;;;;;9.11;74.76;102662.22;5039547;28;20037;-81
2021/03/29 07:42:44;;;;;;;6.40;3.05;;;;;;;9.10;74.88;102673.94;5049274;28;20029;-86
2021/03/29 07:45:11;;;;;;;15.00;4.25;;;;;;;9.12;75.59;102674.56;5044455;28;20036;-81
2021/03/29 07:47:58;;;;;;;8.32;3.88;;;;;;;9.02;75.69;102668.72;5045163;28;20109;-81
2021/03/29 07:50:24;;;;;;;10.48;3.60;;;;;;;9.02;77.05;102671.41;5044134;28;20058;-78
2021/03/29 07:52:52;;;;;;;8.90;3.17;;;;;;;8.98;76.28;102665.63;5041781;28;20029;-79
2021/03/29 07:55:27;;;;;;;7.15;3.25;;;;;;;9.03;77.51;102660.53;5046431;28;20491;-79
2021/03/29 07:57:55;;;;;;;10.35;3.33;;;;;;;9.08;76.18;102662.59;5045710;28;20029;-78
2021/03/29 08:00:23;;;;;;;11.45;3.65;;;;;;;9.14;75.63;102661.84;5043009;28;20495;-78
2021/03/29 08:02:59;;;;;;;10.27;3.78;;;;;;;9.41;74.76;102668.25;5049689;28;20029;-81
2021/03/29 08:05:42;;;;;;;6.70;3.25;;;;;;;9.47;74.71;102658.63;5047710;28;20033;-81
2021/03/29 08:08:26;;;;;;;14.20;4.53;;;;;;;9.51;74.15;102662.56;5043752;28;20057;-81
2021/03/29 08:10:59;;;;;;;6.38;3.75;;;;;;;9.57;74.31;102667.16;5061285;28;20025;-81
2021/03/29 08:13:35;;;;;;;8.90;5.07;;;;;;;9.72;73.90;102667.88;5045570;28;20017;-82
2021/03/29 08:16:04;;;;;;;9.27;4.00;;;;;;;9.78;73.97;102660.91;5044930;28;20087;-82
2021/03/29 08:18:50;;;;;;;9.77;3.65;;;;;;;9.83;72.82;102661.97;5045143;28;20033;-81
2021/03/29 08:21:54;;;;;;;14.82;4.07;;;;;;;10.00;72.23;102668.66;5047968;28;20037;-81
2021/03/29 08:24:21;;;;;;;10.10;4.28;;;;;;;10.03;72.23;102671.97;5046597;28;20124;-81
2021/03/29 08:26:48;;;;;;;9.68;4.45;;;;;;;10.13;72.04;102661.72;5044951;28;20380;-81
2021/03/29 08:29:30;;;;;;;13.73;4.50;;;;;;;10.05;70.74;102670.75;5044424;28;20088;-81
2021/03/29 08:32:09;;;;;;;9.00;3.75;;;;;;;10.08;71.81;102665.00;5046375;28;20036;-81
2021/03/29 08:34:55;;;;;;;7.03;4.10;;;;;;;10.02;71.12;102660.44;5040558;28;20028;-81
2021/03/29 08:37:51;;;;;;;9.77;4.25;;;;;;;10.06;71.70;102661.72;5055037;28;20044;-86
2021/03/29 08:40:25;;;;;;;6.65;4.30;;;;;;;10.03;71.17;102658.56;5044367;28;20491;-86
2021/03/29 08:42:52;;;;;;;11.00;4.72;;;;;;;10.12;71.75;102649.38;5041703;28;20499;-79
2021/03/29 08:45:25;;;;;;;11.82;3.92;;;;;;;9.96;70.62;102643.31;5045744;28;20021;-84
2021/03/29 08:47:53;;;;;;;8.20;3.95;;;;;;;10.12;70.25;102649.38;5042607;28;20558;-85
2021/03/29 08:50:35;;;;;;;12.82;5.05;;;;;;;10.37;69.53;102652.38;5042543;28;20029;-82
2021/03/29 08:53:08;;;;;;;14.43;5.15;;;;;;;10.44;69.23;102645.22;5047246;28;20044;-83
2021/03/29 08:55:35;;;;;;;12.73;4.40;;;;;;;10.57;68.95;102637.19;5041450;28;20025;-83
2021/03/29 08:58:02;;;;;;;8.18;3.60;;;;;;;10.76;68.37;102636.41;5036068;28;20029;-83
2021/03/29 09:00:30;;;;;;;10.82;4.13;;;;;;;10.70;68.28;102631.88;5041488;28;20033;-83
2021/03/29 09:02:56;;;;;;;12.13;4.20;;;;;;;10.78;68.01;102630.88;5046051;28;20024;-83
2021/03/29 09:05:24;;;;;;;10.98;4.45;;;;;;;10.86;67.61;102631.50;5042546;28;20087;-83
2021/03/29 09:07:52;;;;;;;9.75;4.40;;;;;;;10.75;66.58;102637.44;5037316;28;20036;-83
2021/03/29 09:10:35;;;;;;;7.05;3.67;;;;;;;10.93;66.46;102646.75;5044626;28;20028;-85
2021/03/29 09:13:03;;;;;;;9.75;3.78;;;;;;;11.05;65.92;102640.59;5039589;28;20464;-83
2021/03/29 09:15:31;;;;;;;11.43;4.22;;;;;;;11.14;65.82;102643.94;5043087;28;20037;-84
2021/03/29 09:18:10;;;;;;;11.85;4.35;;;;;;;10.94;66.16;102648.41;5046387;28;20021;-82
2021/03/29 09:20:35;;;;;;;7.18;3.83;;;;;;;11.18;65.71;102645.16;5042056;28;20047;-84
2021/03/29 09:23:02;;;;;;;9.82;3.97;;;;;;;11.34;65.01;102643.94;5047334;28;20033;-83
2021/03/29 09:25:35;;;;;;;7.18;3.63;;;;;;;11.54;65.09;102642.06;5037459;28;20044;-83
2021/03/29 09:30:53;;;;;;;12.60;5.22;;;;;;;12.03;63.78;102638.06;5044035;28;20435;-83
2021/03/29 09:33:20;;;;;;;8.38;3.90;;;;;;;12.21;64.11;102640.03;5043851;28;20052;-83
2021/03/29 09:35:47;;;;;;;9.13;3.75;;;;;;;12.43;63.32;102632.53;5043594;28;20037;-83
2021/03/29 09:38:14;;;;;;;8.30;3.47;;;;;;;12.69;61.88;102635.06;5045374;28;20029;-82
2021/03/29 09:40:40;;;;;;;7.32;3.45;;;;;;;12.83;61.05;102628.56;5040216;28;20035;-83
2021/03/29 09:43:18;;;;;;;7.47;3.53;;;;;;;13.14;60.29;102629.59;5040285;28;20029;-81
2021/03/29 09:45:43;;;;;;;8.57;3.10;;;;;;;13.33;60.07;102638.56;5045610;28;20025;-82
2021/03/29 09:48:10;;;;;;;11.20;3.78;;;;;;;13.29;58.04;102625.56;5042304;28;20187;-81
2021/03/29 09:50:42;;;;;;;10.15;3.65;;;;;;;13.38;57.02;102625.25;5044642;28;20032;-82
2021/03/29 09:53:11;;;;;;;7.70;2.70;;;;;;;13.42;56.72;102627.28;5039550;28;20022;-82
2021/03/29 09:55:52;;;;;;;7.00;2.92;;;;;;;13.41;55.58;102614.88;5061877;28;20043;-82
2021/03/29 09:58:20;;;;;;;11.35;3.67;;;;;;;13.59;56.78;102625.66;5040665;28;20025;-82
2021/03/29 10:00:46;;;;;;;12.45;3.80;;;;;;;13.67;56.25;102624.56;5042152;28;20111;-83
2021/03/29 10:03:17;;;;;;;9.18;3.17;;;;;;;13.67;55.70;102623.75;5038942;28;20064;-83
2021/03/29 10:05:43;;;;;;;7.88;3.20;;;;;;;13.36;52.84;102621.97;5037093;28;20040;-83
2021/03/29 10:08:09;;;;;;;9.98;3.13;;;;;;;13.33;53.29;102615.16;5038196;28;20029;-84
2021/03/29 10:10:35;;;;;;;8.55;3.65;;;;;;;13.51;54.66;102609.81;5036502;28;20017;-83
2021/03/29 10:13:11;;;;;;;7.28;2.95;;;;;;;13.71;53.65;102614.16;5043715;28;20031;-83
2021/03/29 10:15:39;;;;;;;5.00;2.75;;;;;;;13.79;52.28;102621.94;5034480;28;20098;-83
2021/03/29 10:18:09;;;;;;;5.82;2.13;;;;;;;13.73;52.17;102633.63;5035763;28;20024;-84
2021/03/29 10:20:37;;;;;;;11.07;2.75;;;;;;;13.84;52.25;102636.41;5042800;28;20511;-83
2021/03/29 10:23:28;;;;;;;8.05;2.25;;;;;;;13.67;51.71;102627.28;5040451;28;20028;-83
2021/03/29 10:26:16;;;;;;;9.68;3.40;;;;;;;13.67;52.61;102629.13;5040607;28;20033;-82
2021/03/29 10:29:02;;;;;;;8.20;2.13;;;;;;;13.72;51.30;102631.97;5057461;28;20384;-83
2021/03/29 10:31:29;;;;;;;10.05;2.63;;;;;;;13.84;51.60;102635.59;5044641;28;20503;-83
2021/03/29 10:33:57;;;;;;;8.07;2.53;;;;;;;13.65;51.57;102625.84;5038181;28;20075;-83
2021/03/29 10:36:24;;;;;;;5.85;2.40;;;;;;;13.86;51.60;102622.72;5037313;28;20025;-83
2021/03/29 10:38:51;;;;;;;6.60;2.40;;;;;;;13.87;51.33;102637.84;5042694;28;20040;-83
2021/03/29 10:41:17;;;;;;;9.40;2.75;;;;;;;13.86;51.01;102638.88;5034784;28;20659;-83
2021/03/29 10:43:42;;;;;;;7.50;2.90;;;;;;;13.91;50.05;102636.34;5043217;28;20068;-83
2021/03/29 10:46:08;;;;;;;5.55;2.20;;;;;;;14.34;49.62;102632.69;5035347;28;20115;-83
2021/03/29 10:48:35;;;;;;;9.07;2.28;;;;;;;14.74;48.73;102636.56;5036657;28;20126;-83
2021/03/29 10:51:03;;;;;;;9.65;2.78;;;;;;;15.03;48.19;102628.63;5040874;28;20025;-83
2021/03/29 10:53:28;;;;;;;12.07;2.47;;;;;;;15.38;47.90;102632.19;5039324;28;20514;-83
2021/03/29 10:55:55;;;;;;;5.85;2.90;;;;;;;15.59;47.14;102619.19;5042397;28;20029;-83
2021/03/29 10:58:20;;;;;;;6.18;2.88;;;;;;;15.87;46.17;102603.06;5041134;28;20031;-82
2021/03/29 11:00:46;;;;;;;9.57;3.05;;;;;;;15.77;46.70;102619.03;5040180;28;20033;-84
2021/03/29 11:03:11;;;;;;;12.27;2.85;;;;;;;15.67;45.95;102616.13;5039991;28;20029;-83
2021/03/29 11:05:37;;;;;;;15.82;3.00;;;;;;;15.53;47.13;102618.22;5041000;28;20236;-83
2021/03/29 11:08:03;;;;;;;8.45;2.80;;;;;;;15.21;47.41;102620.44;5042974;28;20533;-83
2021/03/29 11:10:28;;;;;;;6.40;2.10;;;;;;;15.31;47.54;102618.00;5042648;28;20085;-83
2021/03/29 11:12:54;;;;;;;7.60;2.58;;;;;;;15.24;47.78;102625.38;5032517;28;20029;-83
2021/03/29 11:15:20;;;;;;;8.73;3.03;;;;;;;15.20;47.46;102616.09;5040597;28;21095;-83
2021/03/29 11:17:46;;;;;;;7.75;2.80;;;;;;;14.94;47.36;102630.84;5037489;28;20029;-83
2021/03/29 11:20:15;;;;;;;7.72;2.83;;;;;;;14.91;47.58;102631.31;5038762;28;20035;-83
2021/03/29 11:22:41;;;;;;;7.15;2.78;;;;;;;15.19;47.72;102622.56;5045500;28;20033;-83
2021/03/29 11:25:07;;;;;;;7.97;3.05;;;;;;;15.35;47.79;102621.84;5038835;28;20029;-83
2021/03/29 11:27:35;;;;;;;5.38;2.67;;;;;;;15.55;47.13;102612.56;5056682;28;20109;-83
2021/03/29 11:30:04;;;;;;;9.95;2.83;;;;;;;15.67;46.15;102622.34;5039959;28;20098;-83
2021/03/29 11:32:29;;;;;;;6.72;2.40;;;;;;;15.77;46.32;102621.75;5044346;28;20633;-84
2021/03/29 11:34:55;;;;;;;8.40;2.50;;;;;;;15.70;46.29;102626.47;5045989;28;20055;-83
2021/03/29 11:37:21;;;;;;;7.80;2.80;;;;;;;15.26;48.18;102619.72;5043868;28;20055;-83
2021/03/29 11:39:46;;;;;;;6.65;2.65;;;;;;;15.22;49.17;102618.56;5043683;28;20182;-83
2021/03/29 11:42:15;;;;;;;5.63;2.20;;;;;;;15.39;48.24;102623.03;5039966;28;20597;-83